createdAt,value
2022-10-17T00:02:13.286Z,67.53
2022-10-17T00:04:39.829Z,67.49
2022-10-17T00:07:06.329Z,67.67
2022-10-17T00:09:32.825Z,67.53
2022-10-17T00:11:59.368Z,67.42
2022-10-17T00:14:25.862Z,67.33
2022-10-17T00:16:52.393Z,67.51
2022-10-17T00:19:18.934Z,67.85
2022-10-17T00:21:45.474Z,67.88
2022-10-17T00:24:11.963Z,67.67
2022-10-17T00:26:38.489Z,67.64
2022-10-17T00:29:05.093Z,67.49
2022-10-17T00:31:31.778Z,67.39
2022-10-17T00:33:58.322Z,67.86
2022-10-17T00:36:25.862Z,67.69
2022-10-17T00:38:55.793Z,67.65
2022-10-17T00:41:27.270Z,67.55
2022-10-17T00:44:29.491Z,67.72
2022-10-17T00:47:02.534Z,67.47
2022-10-17T00:49:31.576Z,67.53
2022-10-17T00:52:19.697Z,67.62
2022-10-17T00:54:49.704Z,67.56
2022-10-17T00:57:16.970Z,67.37
2022-10-17T00:59:47.313Z,67.69
2022-10-17T01:02:16.211Z,67.44
2022-10-17T01:04:45.349Z,67.58
2022-10-17T01:07:12.586Z,67.62
2022-10-17T01:09:40.046Z,67.58
2022-10-17T01:12:15.576Z,67.24
2022-10-17T01:15:03.937Z,67.55
2022-10-17T01:17:39.701Z,67.64
2022-10-17T01:20:44.180Z,67.74
2022-10-17T01:23:38.452Z,67.64
2022-10-17T01:26:14.267Z,67.71
2022-10-17T01:28:56.093Z,67.64
2022-10-17T01:31:25.508Z,67.45
2022-10-17T01:34:03.693Z,67.52
2022-10-17T01:36:46.073Z,67.38
2022-10-17T01:39:15.131Z,67.20
2022-10-17T01:41:47.406Z,66.82
2022-10-17T01:44:15.172Z,67.11
2022-10-17T01:46:45.300Z,67.08
2022-10-17T01:49:13.439Z,67.11
2022-10-17T01:51:43.320Z,67.34
2022-10-17T01:54:14.237Z,67.23
2022-10-17T01:56:41.374Z,67.32
2022-10-17T01:59:16.891Z,67.24
2022-10-17T02:01:44.964Z,67.29
2022-10-17T02:04:12.163Z,67.22
2022-10-17T02:06:39.028Z,67.21
2022-10-17T02:09:25.005Z,67.50
2022-10-17T02:12:08.665Z,67.38
2022-10-17T02:15:16.718Z,67.24
2022-10-17T02:18:01.242Z,67.47
2022-10-17T02:20:50.570Z,67.51
2022-10-17T02:23:21.909Z,67.20
2022-10-17T02:25:54.328Z,67.36
2022-10-17T02:28:31.639Z,67.49
2022-10-17T02:31:02.268Z,67.53
2022-10-17T02:33:47.437Z,67.29
2022-10-17T02:36:18.586Z,67.36
2022-10-17T02:38:45.563Z,67.09
2022-10-17T02:41:16.004Z,67.36
2022-10-17T02:43:45.355Z,67.32
2022-10-17T02:46:20.918Z,67.44
2022-10-17T02:49:11.512Z,67.02
2022-10-17T02:51:46.014Z,66.99
2022-10-17T02:54:21.603Z,67.01
2022-10-17T02:56:55.693Z,67.17
2022-10-17T02:59:23.288Z,66.88
2022-10-17T03:01:51.527Z,66.86
2022-10-17T03:04:19.190Z,67.38
2022-10-17T03:06:47.222Z,66.89
2022-10-17T03:09:14.292Z,66.93
2022-10-17T03:11:41.651Z,67.03
2022-10-17T03:14:09.007Z,66.88
2022-10-17T03:16:36.360Z,67.16
2022-10-17T03:19:04.020Z,67.15
2022-10-17T03:21:31.719Z,66.95
2022-10-17T03:23:58.293Z,67.16
2022-10-17T03:26:25.109Z,67.07
2022-10-17T03:28:54.336Z,67.27
2022-10-17T03:31:22.585Z,67.40
2022-10-17T03:33:50.356Z,67.33
2022-10-17T03:36:18.493Z,67.49
2022-10-17T03:38:46.750Z,67.42
2022-10-17T03:41:13.699Z,67.59
2022-10-17T03:43:40.609Z,67.48
2022-10-17T03:46:07.951Z,67.65
2022-10-17T03:48:35.575Z,67.81
2022-10-17T03:51:08.070Z,68.00
2022-10-17T03:53:40.018Z,68.08
2022-10-17T03:56:11.186Z,68.20
2022-10-17T03:58:38.074Z,68.48
2022-10-17T04:01:06.447Z,68.13
2022-10-17T04:03:33.276Z,68.66
2022-10-17T04:06:01.121Z,68.63
2022-10-17T04:08:28.609Z,68.75
2022-10-17T04:11:15.672Z,68.76
2022-10-17T04:13:43.327Z,68.76
2022-10-17T04:16:17.204Z,68.76
2022-10-17T04:18:58.552Z,69.19
2022-10-17T04:21:28.737Z,69.01
2022-10-17T04:23:59.546Z,69.03
2022-10-17T04:26:58.184Z,69.05
2022-10-17T04:29:28.357Z,69.23
2022-10-17T04:32:04.365Z,68.86
2022-10-17T04:34:40.217Z,69.23
2022-10-17T04:37:07.025Z,69.40
2022-10-17T04:39:34.199Z,69.06
2022-10-17T04:42:00.739Z,69.46
2022-10-17T04:44:30.710Z,69.23
2022-10-17T04:46:58.202Z,69.56
2022-10-17T04:49:25.318Z,69.68
2022-10-17T04:51:54.824Z,69.52
2022-10-17T04:54:25.122Z,69.79
2022-10-17T04:56:58.086Z,69.82
2022-10-17T04:59:25.714Z,69.70
2022-10-17T05:02:04.737Z,69.73
2022-10-17T05:04:33.034Z,69.63
2022-10-17T05:07:00.307Z,69.92
2022-10-17T05:09:50.063Z,69.79
2022-10-17T05:12:18.239Z,69.99
2022-10-17T05:14:45.835Z,69.77
2022-10-17T05:17:13.367Z,70.00
2022-10-17T05:19:39.922Z,69.59
2022-10-17T05:22:08.609Z,69.89
2022-10-17T05:24:35.251Z,69.70
2022-10-17T05:27:01.998Z,69.80
2022-10-17T05:29:28.531Z,69.78
2022-10-17T05:32:03.918Z,69.88
2022-10-17T05:34:30.506Z,69.60
2022-10-17T05:36:57.778Z,70.49
2022-10-17T05:39:25.786Z,70.76
2022-10-17T05:41:52.687Z,70.73
2022-10-17T05:44:19.398Z,70.80
2022-10-17T05:46:52.113Z,70.72
2022-10-17T05:49:31.954Z,70.59
2022-10-17T05:52:00.872Z,70.47
2022-10-17T05:54:30.368Z,70.69
2022-10-17T05:56:57.009Z,70.74
2022-10-17T05:59:28.295Z,70.57
2022-10-17T06:02:06.647Z,70.53
2022-10-17T06:04:34.358Z,70.16
2022-10-17T06:07:02.068Z,69.97
2022-10-17T06:09:30.057Z,70.08
2022-10-17T06:11:56.607Z,70.11
2022-10-17T06:14:23.641Z,70.12
2022-10-17T06:16:53.609Z,69.85
2022-10-17T06:19:20.278Z,69.79
2022-10-17T06:21:47.106Z,69.81
2022-10-17T06:24:18.153Z,69.56
2022-10-17T06:26:44.858Z,69.57
2022-10-17T06:29:14.053Z,69.80
2022-10-17T06:31:45.791Z,69.57
2022-10-17T06:34:12.426Z,69.23
2022-10-17T06:36:40.410Z,69.16
2022-10-17T06:39:08.234Z,69.31
2022-10-17T06:41:44.440Z,69.08
2022-10-17T06:44:12.015Z,69.05
2022-10-17T06:47:19.910Z,68.94
2022-10-17T06:49:47.727Z,68.81
2022-10-17T06:52:31.706Z,68.85
2022-10-17T06:55:21.475Z,68.38
2022-10-17T06:58:13.366Z,68.37
2022-10-17T07:00:51.550Z,68.14
2022-10-17T07:03:18.462Z,68.17
2022-10-17T07:05:52.155Z,67.91
2022-10-17T07:08:19.053Z,68.06
2022-10-17T07:10:45.613Z,68.03
2022-10-17T07:13:12.224Z,67.94
2022-10-17T07:15:38.964Z,67.78
2022-10-17T07:18:06.003Z,67.69
2022-10-17T07:20:32.633Z,67.77
2022-10-17T07:22:59.278Z,67.51
2022-10-17T07:25:26.126Z,67.45
2022-10-17T07:27:57.218Z,67.18
2022-10-17T07:30:24.483Z,66.85
2022-10-17T07:33:04.961Z,67.09
2022-10-17T07:35:31.622Z,67.12
2022-10-17T07:37:58.609Z,67.01
2022-10-17T07:40:27.998Z,66.84
2022-10-17T07:42:56.316Z,66.69
2022-10-17T07:45:24.449Z,66.58
2022-10-17T07:47:51.618Z,66.10
2022-10-17T07:50:18.306Z,66.01
2022-10-17T07:52:44.919Z,66.25
2022-10-17T07:55:11.428Z,66.00
2022-10-17T07:57:37.990Z,65.94
2022-10-17T08:00:05.436Z,65.79
2022-10-17T08:02:39.436Z,66.62
2022-10-17T08:05:06.320Z,66.30
2022-10-17T08:07:32.974Z,65.84
2022-10-17T08:09:59.590Z,66.47
2022-10-17T08:12:26.166Z,66.13
2022-10-17T08:14:52.756Z,65.89
2022-10-17T08:17:19.521Z,66.19
2022-10-17T08:19:46.100Z,65.79
2022-10-17T08:22:12.619Z,66.30
2022-10-17T08:24:39.278Z,65.98
2022-10-17T08:27:13.324Z,65.89
2022-10-17T08:29:40.673Z,65.72
2022-10-17T08:32:09.958Z,65.65
2022-10-17T08:34:36.756Z,65.30
2022-10-17T08:37:03.775Z,65.39
2022-10-17T08:39:30.363Z,65.33
2022-10-17T08:42:24.649Z,64.92
2022-10-17T08:45:17.011Z,65.09
2022-10-17T08:47:49.741Z,64.64
2022-10-17T08:50:25.976Z,64.31
2022-10-17T08:52:55.682Z,64.12
2022-10-17T08:55:44.460Z,64.20
2022-10-17T08:58:20.565Z,63.86
2022-10-17T09:00:50.379Z,63.90
2022-10-17T09:03:38.863Z,63.52
2022-10-17T09:06:29.630Z,63.84
2022-10-17T09:09:11.339Z,63.08
2022-10-17T09:11:55.427Z,63.13
2022-10-17T09:14:43.218Z,62.50
2022-10-17T09:17:50.510Z,62.93
2022-10-17T09:20:30.193Z,62.76
2022-10-17T09:25:29.306Z,63.01
2022-10-17T09:28:14.140Z,62.66
2022-10-17T09:31:05.921Z,62.49
2022-10-17T09:33:53.729Z,62.79
2022-10-17T09:36:32.973Z,61.87
2022-10-17T09:39:07.855Z,61.45
2022-10-17T09:41:51.543Z,61.47
2022-10-17T09:44:33.142Z,60.66
2022-10-17T09:47:06.377Z,60.76
2022-10-17T09:49:42.121Z,60.31
2022-10-17T09:52:17.238Z,60.09
2022-10-17T09:54:58.301Z,59.88
2022-10-17T09:57:25.617Z,59.82
2022-10-17T09:59:56.964Z,59.86
2022-10-17T10:02:25.071Z,59.56
2022-10-17T10:05:06.319Z,58.79
2022-10-17T10:07:38.927Z,59.19
2022-10-17T10:10:24.362Z,58.63
2022-10-17T10:13:20.257Z,58.63
2022-10-17T10:15:48.752Z,58.54
2022-10-17T10:18:35.603Z,58.75
2022-10-17T10:21:05.217Z,57.99
2022-10-17T10:23:31.769Z,58.13
2022-10-17T10:26:00.166Z,57.93
2022-10-17T10:28:28.172Z,57.79
2022-10-17T10:30:55.679Z,57.49
2022-10-17T10:33:23.762Z,57.73
2022-10-17T10:35:56.996Z,57.67
2022-10-17T10:38:23.856Z,57.62
2022-10-17T10:40:55.947Z,57.75
2022-10-17T10:43:34.647Z,57.20
2022-10-17T10:46:03.148Z,57.37
2022-10-17T10:48:35.747Z,57.09
2022-10-17T10:51:07.042Z,57.09
2022-10-17T10:54:13.285Z,57.33
2022-10-17T10:56:49.866Z,57.56
2022-10-17T10:59:20.870Z,56.55
2022-10-17T11:01:59.763Z,56.35
2022-10-17T11:04:41.602Z,56.60
2022-10-17T11:07:16.288Z,56.34
2022-10-17T11:09:45.713Z,56.27
2022-10-17T11:12:18.828Z,56.08
2022-10-17T11:14:52.864Z,55.78
2022-10-17T11:17:25.843Z,55.82
2022-10-17T11:20:03.349Z,55.89
2022-10-17T11:22:32.913Z,55.47
2022-10-17T11:25:19.886Z,55.52
2022-10-17T11:27:46.492Z,55.99
2022-10-17T11:30:14.712Z,55.24
2022-10-17T11:32:46.058Z,55.65
2022-10-17T11:35:21.690Z,55.32
2022-10-17T11:38:02.451Z,55.02
2022-10-17T11:40:36.058Z,55.46
2022-10-17T11:43:06.937Z,55.35
2022-10-17T11:45:41.700Z,55.46
2022-10-17T11:48:21.880Z,55.83
2022-10-17T11:54:04.107Z,54.77
2022-10-17T11:57:02.456Z,54.35
2022-10-17T11:59:32.081Z,54.62
2022-10-17T12:02:04.864Z,54.52
2022-10-17T12:04:49.452Z,54.87
2022-10-17T12:07:31.152Z,54.67
2022-10-17T12:10:07.771Z,54.95
2022-10-17T12:12:35.403Z,54.44
2022-10-17T12:15:20.723Z,54.59
2022-10-17T12:17:54.780Z,54.78
2022-10-17T12:20:21.754Z,54.35
2022-10-17T12:22:49.620Z,54.72
2022-10-17T12:25:22.407Z,54.53
2022-10-17T12:27:50.240Z,54.32
2022-10-17T12:30:25.241Z,53.83
2022-10-17T12:33:05.743Z,52.99
2022-10-17T12:35:34.913Z,52.41
2022-10-17T12:38:16.752Z,51.52
2022-10-17T12:40:47.860Z,51.49
2022-10-17T12:43:15.420Z,50.77
2022-10-17T12:46:11.335Z,50.68
2022-10-17T12:48:37.765Z,50.23
2022-10-17T12:51:35.375Z,50.55
2022-10-17T12:54:00.053Z,49.71
2022-10-17T12:56:59.093Z,50.17
2022-10-17T12:59:28.457Z,50.53
2022-10-17T13:01:58.837Z,51.15
2022-10-17T13:04:26.523Z,52.27
2022-10-17T13:06:55.049Z,52.46
2022-10-17T13:09:21.606Z,52.54
2022-10-17T13:11:49.271Z,52.79
2022-10-17T13:14:17.087Z,52.10
2022-10-17T13:16:58.482Z,51.19
2022-10-17T13:19:42.543Z,51.26
2022-10-17T13:22:27.151Z,50.66
2022-10-17T13:25:07.872Z,50.06
2022-10-17T13:27:35.911Z,48.74
2022-10-17T14:24:38.578Z,100.00
2022-10-17T14:29:21.947Z,48.46
2022-10-17T14:31:50.603Z,49.60
2022-10-17T14:34:24.026Z,49.37
2022-10-17T14:36:52.376Z,49.67
2022-10-17T14:39:22.349Z,50.05
2022-10-17T14:41:49.757Z,50.36
2022-10-17T14:44:25.509Z,49.76
2022-10-17T14:46:59.313Z,49.11
2022-10-17T14:49:31.840Z,48.44
2022-10-17T14:52:18.234Z,47.95
2022-10-17T14:54:47.717Z,47.93
2022-10-17T14:57:34.426Z,48.33
2022-10-17T15:00:01.141Z,46.95
2022-10-17T15:02:30.128Z,46.25
2022-10-17T15:04:57.226Z,44.37
2022-10-17T15:07:24.150Z,43.97
2022-10-17T15:09:52.565Z,43.98
2022-10-17T15:12:21.649Z,43.18
2022-10-17T15:14:48.657Z,42.16
2022-10-17T15:17:27.132Z,40.65
2022-10-17T15:19:54.055Z,39.56
2022-10-17T15:22:20.586Z,39.17
2022-10-17T15:24:47.387Z,38.46
2022-10-17T15:27:15.521Z,38.94
2022-10-17T15:29:42.041Z,38.88
2022-10-17T15:32:08.712Z,39.56
2022-10-17T15:34:35.214Z,40.82
2022-10-17T15:37:01.771Z,41.58
2022-10-17T15:39:28.286Z,42.21
2022-10-17T15:41:54.842Z,42.02
2022-10-17T15:44:21.326Z,42.73
2022-10-17T15:46:47.857Z,42.82
2022-10-17T15:49:14.998Z,45.10
2022-10-17T15:51:42.214Z,45.88
2022-10-17T15:54:09.021Z,45.94
2022-10-17T15:56:40.784Z,46.13
2022-10-17T15:59:19.123Z,46.24
2022-10-17T16:01:45.871Z,46.59
2022-10-17T16:04:14.717Z,47.19
2022-10-17T16:06:44.310Z,46.89
2022-10-17T16:09:11.137Z,47.91
2022-10-17T16:11:41.408Z,48.97
2022-10-17T16:14:15.534Z,48.76
2022-10-17T16:16:42.215Z,49.39
2022-10-17T16:19:09.122Z,49.75
2022-10-17T16:21:37.755Z,50.40
2022-10-17T16:24:04.953Z,51.42
2022-10-17T16:26:32.081Z,51.84
2022-10-17T16:29:02.532Z,51.80
2022-10-17T16:31:32.072Z,52.38
2022-10-17T16:33:59.625Z,52.15
2022-10-17T16:36:26.145Z,52.84
2022-10-17T16:38:54.148Z,52.88
2022-10-17T16:41:25.365Z,53.11
2022-10-17T16:43:53.133Z,53.68
2022-10-17T16:46:20.190Z,53.82
2022-10-17T16:48:46.820Z,54.23
2022-10-17T16:51:14.023Z,54.14
2022-10-17T16:53:43.711Z,55.25
2022-10-17T16:56:15.574Z,55.33
2022-10-17T16:58:42.619Z,56.22
2022-10-17T17:01:14.836Z,57.00
2022-10-17T17:03:43.256Z,57.11
2022-10-17T17:06:13.457Z,57.61
2022-10-17T17:08:39.986Z,58.17
2022-10-17T17:11:07.567Z,58.48
2022-10-17T17:13:34.227Z,58.58
2022-10-17T17:16:17.177Z,58.37
2022-10-17T17:18:45.914Z,58.61
2022-10-17T17:21:13.866Z,58.50
2022-10-17T17:23:42.141Z,58.23
2022-10-17T17:26:12.820Z,58.08
2022-10-17T17:28:40.280Z,58.04
2022-10-17T17:31:09.263Z,58.08
2022-10-17T17:33:38.170Z,58.51
2022-10-17T17:36:05.209Z,59.19
2022-10-17T17:38:33.796Z,59.13
2022-10-17T17:41:00.803Z,59.08
2022-10-17T17:43:27.718Z,59.10
2022-10-17T17:45:54.211Z,59.46
2022-10-17T17:48:20.818Z,59.20
2022-10-17T17:50:47.784Z,59.64
2022-10-17T17:53:15.662Z,59.21
2022-10-17T17:55:42.513Z,59.57
2022-10-17T17:58:09.500Z,59.43
2022-10-17T18:00:36.210Z,59.63
2022-10-17T18:03:02.689Z,59.94
2022-10-17T18:05:29.397Z,59.68
2022-10-17T18:07:56.189Z,60.14
2022-10-17T18:10:22.690Z,60.08
2022-10-17T18:12:49.252Z,60.84
2022-10-17T18:15:16.120Z,60.57
2022-10-17T18:17:42.713Z,61.27
2022-10-17T18:20:09.745Z,61.49
2022-10-17T18:22:36.598Z,61.44
2022-10-17T18:25:03.324Z,61.29
2022-10-17T18:27:29.849Z,61.58
2022-10-17T18:29:56.335Z,61.89
2022-10-17T18:32:22.873Z,62.14
2022-10-17T18:34:49.353Z,61.81
2022-10-17T18:37:15.835Z,61.71
2022-10-17T18:39:42.434Z,61.93
2022-10-17T18:42:09.011Z,62.18
2022-10-17T18:44:35.489Z,62.33
2022-10-17T18:47:04.245Z,62.27
2022-10-17T18:49:31.202Z,62.61
2022-10-17T18:51:59.416Z,62.89
2022-10-17T18:54:25.888Z,62.64
2022-10-17T18:56:54.354Z,62.81
2022-10-17T18:59:21.147Z,63.10
2022-10-17T19:01:48.405Z,63.11
2022-10-17T19:04:15.012Z,63.09
2022-10-17T19:06:41.738Z,63.27
2022-10-17T19:09:10.000Z,63.50
2022-10-17T19:11:37.423Z,63.87
2022-10-17T19:14:10.780Z,63.80
2022-10-17T19:16:37.406Z,63.88
2022-10-17T19:19:06.831Z,63.91
2022-10-17T19:21:34.372Z,63.92
2022-10-17T19:24:04.803Z,64.15
2022-10-17T19:26:32.837Z,64.15
2022-10-17T19:29:00.538Z,64.19
2022-10-17T19:31:29.131Z,64.25
2022-10-17T19:33:56.333Z,64.49
2022-10-17T19:36:27.589Z,64.34
2022-10-17T19:38:57.276Z,64.51
2022-10-17T19:41:24.198Z,64.60
2022-10-17T19:43:50.996Z,64.59
2022-10-17T19:46:19.688Z,64.72
2022-10-17T19:48:46.511Z,64.53
2022-10-17T19:51:15.206Z,64.50
2022-10-17T19:53:42.478Z,64.39
2022-10-17T19:56:09.473Z,64.57
2022-10-17T19:58:43.609Z,64.60
2022-10-17T20:01:11.768Z,64.67
2022-10-17T20:03:38.390Z,64.84
2022-10-17T20:06:05.089Z,64.90
2022-10-17T20:08:31.580Z,65.02
2022-10-17T20:11:02.325Z,65.01
2022-10-17T20:13:28.838Z,65.07
2022-10-17T20:15:55.886Z,65.22
2022-10-17T20:18:22.434Z,65.20
2022-10-17T20:20:49.008Z,65.06
2022-10-17T20:23:15.515Z,64.83
2022-10-17T20:25:42.106Z,65.20
2022-10-17T20:28:08.620Z,65.31
2022-10-17T20:30:35.398Z,65.22
2022-10-17T20:33:01.950Z,65.34
2022-10-17T20:35:28.662Z,65.42
2022-10-17T20:37:55.158Z,65.34
2022-10-17T20:40:36.892Z,65.41
2022-10-17T20:43:07.737Z,65.53
2022-10-17T20:45:50.891Z,65.72
2022-10-17T20:48:18.569Z,65.66
2022-10-17T20:50:45.062Z,65.72
2022-10-17T20:53:35.449Z,65.62
2022-10-17T20:56:07.543Z,65.76
2022-10-17T20:58:34.308Z,65.73
2022-10-17T21:01:09.144Z,65.84
2022-10-17T21:03:41.145Z,65.88
2022-10-17T21:06:10.933Z,66.07
2022-10-17T21:08:37.734Z,66.04
2022-10-17T21:11:25.056Z,65.85
2022-10-17T21:13:55.992Z,65.99
2022-10-17T21:16:22.908Z,65.86
2022-10-17T21:18:49.681Z,65.83
2022-10-17T21:21:21.732Z,66.07
2022-10-17T21:23:49.653Z,66.00
2022-10-17T21:26:16.957Z,66.19
2022-10-17T21:28:44.733Z,66.16
2022-10-17T21:31:15.621Z,66.00
2022-10-17T21:33:44.181Z,66.23
2022-10-17T21:36:11.506Z,66.06
2022-10-17T21:38:38.569Z,66.06
2022-10-17T21:41:06.564Z,66.04
2022-10-17T21:43:34.003Z,66.09
2022-10-17T21:46:05.329Z,65.87
2022-10-17T21:48:32.851Z,65.86
2022-10-17T21:51:01.222Z,65.91
2022-10-17T21:53:27.657Z,66.07
2022-10-17T21:55:54.178Z,65.90
2022-10-17T21:58:21.520Z,65.71
2022-10-17T22:00:48.104Z,65.86
2022-10-17T22:03:16.769Z,65.74
2022-10-17T22:05:44.424Z,65.74
2022-10-17T22:08:12.382Z,65.80
2022-10-17T22:10:39.535Z,65.88
2022-10-17T22:13:06.072Z,65.88
2022-10-17T22:15:32.532Z,65.80
2022-10-17T22:17:59.041Z,65.82
2022-10-17T22:20:25.571Z,65.85
2022-10-17T22:22:52.146Z,65.71
2022-10-17T22:25:18.610Z,65.72
2022-10-17T22:27:45.073Z,65.64
2022-10-17T22:30:11.713Z,65.84
2022-10-17T22:32:38.212Z,65.75
2022-10-17T22:35:05.031Z,65.92
2022-10-17T22:37:31.876Z,66.00
2022-10-17T22:39:58.629Z,65.60
2022-10-17T22:42:25.128Z,65.63
2022-10-17T22:44:51.687Z,65.62
2022-10-17T22:47:18.158Z,65.70
2022-10-17T22:49:44.661Z,65.82
2022-10-17T22:52:11.145Z,65.84
2022-10-17T22:54:37.670Z,65.72
2022-10-17T22:57:04.190Z,65.59
2022-10-17T22:59:30.664Z,65.94
2022-10-17T23:01:57.176Z,65.69
2022-10-17T23:04:23.645Z,65.73
2022-10-17T23:06:50.113Z,65.86
2022-10-17T23:09:16.660Z,65.77
2022-10-17T23:11:43.185Z,65.62
2022-10-17T23:14:09.632Z,65.95
2022-10-17T23:16:36.109Z,66.03
2022-10-17T23:19:02.591Z,65.82
2022-10-17T23:21:29.167Z,65.84
2022-10-17T23:23:55.662Z,65.77
2022-10-17T23:26:22.158Z,65.73
2022-10-17T23:28:53.718Z,65.91
2022-10-17T23:31:21.370Z,65.73
2022-10-17T23:33:49.157Z,65.86
2022-10-17T23:36:18.206Z,65.79
2022-10-17T23:38:45.861Z,65.87
2022-10-17T23:41:12.963Z,66.03
2022-10-17T23:43:39.751Z,66.14
2022-10-17T23:46:06.808Z,65.98
2022-10-17T23:48:33.364Z,65.84
2022-10-17T23:50:59.905Z,65.81
2022-10-17T23:53:26.655Z,65.74
2022-10-17T23:55:53.182Z,65.78
2022-10-17T23:58:19.688Z,65.76
